createdAt,value
2022-08-14T00:00:20.062Z,100861.78
2022-08-14T00:02:22.142Z,100853.16
2022-08-14T00:04:34.249Z,100849.84
2022-08-14T00:06:38.192Z,100843.66
2022-08-14T00:08:44.931Z,100832.22
2022-08-14T00:10:52.998Z,100835.03
2022-08-14T00:12:57.227Z,100837.75
2022-08-14T00:15:00.752Z,100837.91
2022-08-14T00:17:05.618Z,100838.94
2022-08-14T00:19:19.792Z,100834.50
2022-08-14T00:21:28.413Z,100833.25
2022-08-14T00:23:33.531Z,100829.59
2022-08-14T00:25:41.804Z,100836.09
2022-08-14T00:27:45.344Z,100831.94
2022-08-14T00:29:51.170Z,100824.78
2022-08-14T00:31:55.952Z,100821.38
2022-08-14T00:33:58.764Z,100820.66
2022-08-14T00:36:36.955Z,100819.09
2022-08-14T00:38:44.887Z,100827.09
2022-08-14T00:40:48.501Z,100823.88
2022-08-14T00:42:56.190Z,100816.06
2022-08-14T00:44:58.643Z,100818.84
2022-08-14T00:47:03.683Z,100816.06
2022-08-14T00:49:11.453Z,100817.84
2022-08-14T00:51:16.677Z,100812.66
2022-08-14T00:53:18.687Z,100811.97
2022-08-14T00:55:23.238Z,100810.28
2022-08-14T00:57:28.107Z,100800.81
2022-08-14T00:59:31.812Z,100803.56
2022-08-14T01:01:46.248Z,100801.16
2022-08-14T01:03:49.671Z,100801.00
2022-08-14T01:05:55.854Z,100796.09
2022-08-14T01:08:02.040Z,100798.84
2022-08-14T01:10:06.065Z,100797.91
2022-08-14T01:12:09.296Z,100797.06
2022-08-14T01:14:25.284Z,100792.72
2022-08-14T01:16:31.634Z,100798.13
2022-08-14T01:18:57.763Z,100794.69
2022-08-14T01:21:08.369Z,100791.38
2022-08-14T01:23:18.558Z,100798.66
2022-08-14T01:25:21.095Z,100790.84
2022-08-14T01:27:25.040Z,100788.28
2022-08-14T01:29:58.860Z,100790.06
2022-08-14T01:31:52.741Z,100786.72
2022-08-14T01:35:18.199Z,100792.06
2022-08-14T01:36:23.208Z,100792.22
2022-08-14T01:38:26.635Z,100781.56
2022-08-14T01:40:36.323Z,100768.75
2022-08-14T01:42:44.301Z,100779.16
2022-08-14T01:44:54.353Z,100783.78
2022-08-14T01:47:01.119Z,100775.88
2022-08-14T01:49:08.729Z,100767.97
2022-08-14T01:51:19.192Z,100762.78
2022-08-14T01:53:22.772Z,100769.25
2022-08-14T01:55:31.553Z,100762.34
2022-08-14T01:58:01.542Z,100755.28
2022-08-14T02:00:01.116Z,100760.75
2022-08-14T02:02:19.036Z,100758.13
2022-08-14T02:04:55.772Z,100753.84
2022-08-14T02:06:48.562Z,100747.69
2022-08-14T02:08:57.019Z,100747.81
2022-08-14T02:11:23.325Z,100743.47
2022-08-14T02:13:25.444Z,100740.81
2022-08-14T02:15:27.816Z,100737.41
2022-08-14T02:17:33.382Z,100739.34
2022-08-14T02:19:36.067Z,100729.84
2022-08-14T02:21:50.389Z,100735.25
2022-08-14T02:23:54.558Z,100725.72
2022-08-14T02:25:56.636Z,100725.00
2022-08-14T02:28:25.300Z,100726.25
2022-08-14T02:30:21.417Z,100718.69
2022-08-14T02:32:30.575Z,100711.59
2022-08-14T02:34:38.708Z,100711.66
2022-08-14T02:37:03.603Z,100713.53
2022-08-14T02:39:10.291Z,100718.03
2022-08-14T02:41:13.507Z,100715.38
2022-08-14T02:43:15.318Z,100716.31
2022-08-14T02:45:17.736Z,100709.47
2022-08-14T02:47:20.575Z,100712.31
2022-08-14T02:49:26.766Z,100713.94
2022-08-14T02:51:36.734Z,100713.34
2022-08-14T02:53:42.241Z,100713.78
2022-08-14T02:55:44.356Z,100712.94
2022-08-14T02:57:51.782Z,100719.03
2022-08-14T03:00:00.507Z,100714.97
2022-08-14T03:02:04.611Z,100715.28
2022-08-14T03:04:07.713Z,100710.88
2022-08-14T03:06:20.551Z,100714.66
2022-08-14T03:08:38.433Z,100713.69
2022-08-14T03:10:42.073Z,100722.69
2022-08-14T03:12:51.026Z,100714.75
2022-08-14T03:14:53.637Z,100715.72
2022-08-14T03:16:55.862Z,100716.56
2022-08-14T03:19:01.027Z,100715.88
2022-08-14T03:21:06.131Z,100713.31
2022-08-14T03:23:09.763Z,100709.81
2022-08-14T03:25:12.392Z,100716.84
2022-08-14T03:27:15.709Z,100720.44
2022-08-14T03:29:20.901Z,100716.97
2022-08-14T03:31:28.129Z,100722.34
2022-08-14T03:33:37.876Z,100712.81
2022-08-14T03:36:00.409Z,100714.66
2022-08-14T03:39:15.934Z,100709.56
2022-08-14T03:40:34.152Z,100710.41
2022-08-14T03:42:37.072Z,100718.47
2022-08-14T03:45:20.312Z,100710.84
2022-08-14T03:47:06.782Z,100709.06
2022-08-14T03:49:10.405Z,100704.66
2022-08-14T03:51:16.121Z,100700.09
2022-08-14T03:53:20.267Z,100702.09
2022-08-14T03:55:22.231Z,100699.59
2022-08-14T03:57:24.515Z,100698.69
2022-08-14T03:59:28.409Z,100700.50
2022-08-14T04:01:39.203Z,100697.03
2022-08-14T04:03:48.448Z,100694.47
2022-08-14T04:05:57.121Z,100695.44
2022-08-14T04:08:30.038Z,100692.75
2022-08-14T04:10:33.068Z,100695.38
2022-08-14T04:12:36.186Z,100690.25
2022-08-14T04:14:38.137Z,100686.00
2022-08-14T04:16:43.657Z,100685.91
2022-08-14T04:18:48.336Z,100681.50
2022-08-14T04:20:54.664Z,100677.97
2022-08-14T04:22:57.294Z,100668.50
2022-08-14T04:25:04.904Z,100663.97
2022-08-14T04:27:17.469Z,100662.22
2022-08-14T04:29:19.324Z,100658.66
2022-08-14T04:32:01.030Z,100658.84
2022-08-14T04:33:46.984Z,100651.81
2022-08-14T04:35:56.313Z,100652.88
2022-08-14T04:38:37.292Z,100644.13
2022-08-14T04:40:58.955Z,100645.91
2022-08-14T04:43:20.922Z,100645.09
2022-08-14T04:45:24.515Z,100642.41
2022-08-14T04:47:46.227Z,100645.09
2022-08-14T04:49:56.877Z,100647.78
2022-08-14T04:52:15.507Z,100643.44
2022-08-14T04:54:21.225Z,100647.97
2022-08-14T04:56:30.925Z,100649.06
2022-08-14T04:58:37.500Z,100643.94
2022-08-14T05:00:41.554Z,100645.75
2022-08-14T05:02:43.764Z,100644.91
2022-08-14T05:04:57.280Z,100647.47
2022-08-14T05:07:00.485Z,100649.34
2022-08-14T05:09:02.185Z,100645.81
2022-08-14T05:11:06.703Z,100642.56
2022-08-14T05:13:15.831Z,100637.44
2022-08-14T05:15:19.345Z,100633.78
2022-08-14T05:17:28.979Z,100632.81
2022-08-14T05:21:54.325Z,100642.47
2022-08-14T05:22:16.453Z,100644.19
2022-08-14T05:24:19.709Z,100639.03
2022-08-14T05:26:23.528Z,100642.41
2022-08-14T05:28:27.683Z,100642.56
2022-08-14T05:30:30.197Z,100642.56
2022-08-14T05:32:31.970Z,100646.09
2022-08-14T05:34:34.007Z,100643.47
2022-08-14T05:36:36.609Z,100642.56
2022-08-14T05:38:44.607Z,100647.72
2022-08-14T05:40:49.550Z,100647.66
2022-08-14T05:42:52.712Z,100646.00
2022-08-14T05:44:55.913Z,100640.84
2022-08-14T05:46:58.924Z,100641.47
2022-08-14T05:49:00.644Z,100647.63
2022-08-14T05:51:02.347Z,100640.56
2022-08-14T05:53:04.179Z,100647.63
2022-08-14T05:55:08.594Z,100641.53
2022-08-14T05:57:10.279Z,100647.44
2022-08-14T05:59:13.223Z,100647.53
2022-08-14T06:01:18.550Z,100651.06
2022-08-14T06:03:22.556Z,100650.16
2022-08-14T06:05:28.754Z,100651.06
2022-08-14T06:07:30.990Z,100645.72
2022-08-14T06:09:35.953Z,100642.19
2022-08-14T06:11:42.119Z,100641.38
2022-08-14T06:13:45.970Z,100640.47
2022-08-14T06:15:49.466Z,100643.88
2022-08-14T06:18:03.831Z,100644.97
2022-08-14T06:20:05.754Z,100643.25
2022-08-14T06:22:12.049Z,100640.69
2022-08-14T06:24:18.057Z,100637.94
2022-08-14T06:26:22.151Z,100640.47
2022-08-14T06:28:27.141Z,100649.13
2022-08-14T06:30:46.487Z,100649.13
2022-08-14T06:32:52.862Z,100647.34
2022-08-14T06:35:04.169Z,100649.97
2022-08-14T06:37:13.643Z,100648.22
2022-08-14T06:39:18.599Z,100645.72
2022-08-14T06:41:57.592Z,100645.44
2022-08-14T06:44:00.817Z,100643.72
2022-08-14T06:46:04.227Z,100649.78
2022-08-14T06:48:17.299Z,100641.84
2022-08-14T06:50:21.758Z,100644.47
2022-08-14T06:52:30.051Z,100646.16
2022-08-14T06:54:32.089Z,100641.91
2022-08-14T06:56:34.063Z,100641.63
2022-08-14T06:58:36.887Z,100646.69
2022-08-14T07:00:38.976Z,100644.75
2022-08-14T07:02:59.862Z,100637.66
2022-08-14T07:05:22.837Z,100636.66
2022-08-14T07:07:25.102Z,100634.97
2022-08-14T07:09:43.719Z,100634.91
2022-08-14T07:11:52.319Z,100637.25
2022-08-14T07:13:53.966Z,100637.25
2022-08-14T07:15:58.565Z,100637.97
2022-08-14T07:18:08.973Z,100630.75
2022-08-14T07:20:11.340Z,100625.44
2022-08-14T07:22:20.261Z,100627.94
2022-08-14T07:24:31.048Z,100625.19
2022-08-14T07:26:33.499Z,100624.28
2022-08-14T07:28:43.573Z,100625.78
2022-08-14T07:30:50.854Z,100626.53
2022-08-14T07:32:53.409Z,100624.69
2022-08-14T07:34:56.923Z,100621.91
2022-08-14T07:37:01.473Z,100623.34
2022-08-14T07:39:12.511Z,100623.97
2022-08-14T07:41:16.580Z,100614.94
2022-08-14T07:43:18.535Z,100613.00
2022-08-14T07:45:23.301Z,100608.34
2022-08-14T07:47:25.257Z,100613.53
2022-08-14T07:49:27.640Z,100608.00
2022-08-14T07:51:36.765Z,100603.50
2022-08-14T07:53:41.180Z,100607.66
2022-08-14T07:55:43.026Z,100603.88
2022-08-14T07:57:47.594Z,100604.66
2022-08-14T07:59:54.013Z,100603.56
2022-08-14T08:01:57.422Z,100602.66
2022-08-14T08:04:03.993Z,100601.50
2022-08-14T08:06:20.205Z,100590.84
2022-08-14T08:08:27.278Z,100595.97
2022-08-14T08:10:57.093Z,100605.72
2022-08-14T08:12:57.018Z,100590.47
2022-08-14T08:15:03.462Z,100585.88
2022-08-14T08:17:09.727Z,100582.09
2022-08-14T08:19:14.066Z,100575.81
2022-08-14T08:21:16.564Z,100575.66
2022-08-14T08:23:23.280Z,100568.41
2022-08-14T08:25:40.109Z,100559.44
2022-08-14T08:27:44.906Z,100557.56
2022-08-14T08:29:50.650Z,100560.00
2022-08-14T08:31:52.993Z,100550.09
2022-08-14T08:33:54.899Z,100551.72
2022-08-14T08:36:07.896Z,100546.94
2022-08-14T08:38:14.288Z,100540.72
2022-08-14T08:40:42.268Z,100541.19
2022-08-14T08:42:52.117Z,100536.59
2022-08-14T08:44:55.446Z,100526.84
2022-08-14T08:46:59.442Z,100526.53
2022-08-14T08:51:03.295Z,100528.78
2022-08-14T08:53:09.706Z,100522.47
2022-08-14T08:55:12.794Z,100522.00
2022-08-14T08:57:15.625Z,100526.13
2022-08-14T08:59:31.259Z,100518.00
2022-08-14T09:01:35.877Z,100529.25
2022-08-14T09:03:44.012Z,100529.53
2022-08-14T09:05:58.612Z,100533.63
2022-08-14T09:08:30.683Z,100526.97
2022-08-14T09:10:32.737Z,100528.41
2022-08-14T09:12:35.315Z,100527.25
2022-08-14T09:14:37.208Z,100530.41
2022-08-14T09:16:45.169Z,100530.75
2022-08-14T09:18:50.544Z,100525.94
2022-08-14T09:20:58.900Z,100525.50
2022-08-14T09:23:01.564Z,100523.16
2022-08-14T09:25:07.303Z,100525.50
2022-08-14T09:27:22.184Z,100513.44
2022-08-14T09:29:25.266Z,100523.50
2022-08-14T09:31:49.025Z,100522.00
2022-08-14T09:34:26.981Z,100523.31
2022-08-14T09:37:04.724Z,100518.19
2022-08-14T09:39:23.130Z,100515.66
2022-08-14T09:42:21.919Z,100507.84
2022-08-14T09:44:49.587Z,100512.22
2022-08-14T09:46:58.220Z,100507.38
2022-08-14T09:49:05.644Z,100503.88
2022-08-14T09:53:10.986Z,100508.41
2022-08-14T09:55:21.409Z,100505.22
2022-08-14T09:57:28.974Z,100509.06
2022-08-14T09:59:40.930Z,100503.88
2022-08-14T10:01:43.869Z,100499.44
2022-08-14T10:03:55.632Z,100497.84
2022-08-14T10:06:28.334Z,100495.50
2022-08-14T10:08:44.446Z,100486.13
2022-08-14T10:10:48.833Z,100481.50
2022-08-14T10:12:59.880Z,100471.72
2022-08-14T10:15:02.020Z,100473.00
2022-08-14T10:17:07.006Z,100469.94
2022-08-14T10:19:15.917Z,100464.44
2022-08-14T10:21:18.330Z,100459.13
2022-08-14T10:23:23.481Z,100453.78
2022-08-14T10:25:26.898Z,100455.31
2022-08-14T10:27:29.045Z,100457.81
2022-08-14T10:29:43.550Z,100453.06
2022-08-14T10:31:45.850Z,100452.34
2022-08-14T10:34:12.892Z,100456.63
2022-08-14T10:36:36.878Z,100452.28
2022-08-14T10:38:42.541Z,100442.22
2022-08-14T10:40:59.155Z,100443.47
2022-08-14T10:43:02.792Z,100448.78
2022-08-14T10:45:30.948Z,100441.75
2022-08-14T10:48:02.654Z,100438.84
2022-08-14T10:50:01.217Z,100446.81
2022-08-14T10:52:11.150Z,100437.41
2022-08-14T10:54:16.956Z,100444.47
2022-08-14T10:56:36.781Z,100432.88
2022-08-14T10:58:38.785Z,100431.53
2022-08-14T11:00:55.482Z,100437.97
2022-08-14T11:03:01.962Z,100433.09
2022-08-14T11:05:19.381Z,100433.34
2022-08-14T11:07:21.725Z,100425.41
2022-08-14T11:09:26.258Z,100428.16
2022-08-14T11:11:28.491Z,100424.50
2022-08-14T11:13:41.972Z,100413.47
2022-08-14T11:15:46.731Z,100404.94
2022-08-14T11:17:50.423Z,100403.94
2022-08-14T11:19:58.579Z,100407.22
2022-08-14T11:22:02.014Z,100408.38
2022-08-14T11:24:55.222Z,100404.50
2022-08-14T11:26:30.587Z,100404.03
2022-08-14T11:28:47.277Z,100394.09
2022-08-14T11:30:54.270Z,100391.72
2022-08-14T11:32:58.695Z,100393.13
2022-08-14T11:35:03.456Z,100391.34
2022-08-14T11:37:18.751Z,100388.16
2022-08-14T11:39:34.556Z,100391.06
2022-08-14T11:41:55.533Z,100387.91
2022-08-14T11:43:58.812Z,100389.97
2022-08-14T11:46:03.589Z,100394.19
2022-08-14T11:49:02.165Z,100384.75
2022-08-14T11:50:49.843Z,100384.88
2022-08-14T11:52:53.818Z,100382.19
2022-08-14T11:55:09.179Z,100383.31
2022-08-14T11:57:15.403Z,100379.03
2022-08-14T11:59:26.557Z,100376.38
2022-08-14T12:01:38.209Z,100377.66
2022-08-14T12:03:51.969Z,100373.44
2022-08-14T12:06:28.744Z,100377.66
2022-08-14T12:08:39.188Z,100365.38
2022-08-14T12:10:43.540Z,100366.72
2022-08-14T12:12:45.309Z,100365.44
2022-08-14T12:14:56.434Z,100356.38
2022-08-14T12:17:02.176Z,100353.81
2022-08-14T12:19:06.147Z,100350.13
2022-08-14T12:21:15.822Z,100351.31
2022-08-14T12:23:24.783Z,100349.22
2022-08-14T12:25:26.870Z,100351.75
2022-08-14T12:27:41.228Z,100347.28
2022-08-14T12:29:53.561Z,100339.69
2022-08-14T12:32:06.700Z,100343.94
2022-08-14T12:34:13.598Z,100333.25
2022-08-14T12:36:22.315Z,100338.22
2022-08-14T12:38:38.793Z,100336.34
2022-08-14T12:40:51.513Z,100331.47
2022-08-14T12:42:56.664Z,100333.34
2022-08-14T12:45:03.994Z,100329.75
2022-08-14T12:47:15.109Z,100325.66
2022-08-14T12:49:18.952Z,100325.28
2022-08-14T12:51:26.965Z,100328.69
2022-08-14T12:53:38.584Z,100323.16
2022-08-14T12:56:18.501Z,100315.22
2022-08-14T12:58:28.906Z,100321.13
2022-08-14T13:00:36.615Z,100312.75
2022-08-14T13:02:43.970Z,100309.97
2022-08-14T13:04:50.745Z,100309.81
2022-08-14T13:06:55.780Z,100312.22
2022-08-14T13:09:00.057Z,100300.41
2022-08-14T13:11:06.442Z,100303.38
2022-08-14T13:13:15.572Z,100293.75
2022-08-14T13:15:19.374Z,100299.09
2022-08-14T13:17:23.015Z,100304.75
2022-08-14T13:19:28.214Z,100305.13
2022-08-14T13:22:05.451Z,100296.38
2022-08-14T13:23:54.795Z,100285.91
2022-08-14T13:25:58.381Z,100280.31
2022-08-14T13:28:11.415Z,100283.75
2022-08-14T13:30:33.076Z,100280.09
2022-08-14T13:32:36.443Z,100285.34
2022-08-14T13:34:38.493Z,100283.84
2022-08-14T13:36:54.786Z,100276.63
2022-08-14T13:39:01.169Z,100268.38
2022-08-14T13:41:04.027Z,100270.22
2022-08-14T13:43:08.922Z,100260.63
2022-08-14T13:45:12.019Z,100271.34
2022-08-14T13:47:15.906Z,100268.69
2022-08-14T13:49:18.447Z,100262.50
2022-08-14T13:51:24.478Z,100259.81
2022-08-14T13:53:28.012Z,100253.03
2022-08-14T13:55:35.866Z,100249.13
2022-08-14T13:57:49.539Z,100241.63
2022-08-14T13:59:52.186Z,100240.94
2022-08-14T14:02:05.202Z,100241.53
2022-08-14T14:04:11.378Z,100241.63
2022-08-14T14:06:24.190Z,100243.91
2022-08-14T14:08:46.044Z,100240.22
2022-08-14T14:10:48.877Z,100245.56
2022-08-14T14:12:55.918Z,100238.59
2022-08-14T14:15:05.031Z,100234.34
2022-08-14T14:17:09.047Z,100234.97
2022-08-14T14:19:16.992Z,100229.53
2022-08-14T14:21:21.580Z,100225.03
2022-08-14T14:23:24.107Z,100217.72
2022-08-14T14:25:45.616Z,100221.97
2022-08-14T14:27:53.560Z,100223.22
2022-08-14T14:29:58.905Z,100231.47
2022-08-14T14:32:02.301Z,100228.66
2022-08-14T14:34:07.357Z,100228.69
2022-08-14T14:36:21.447Z,100220.81
2022-08-14T14:38:30.888Z,100223.91
2022-08-14T14:40:52.866Z,100209.81
2022-08-14T14:42:57.698Z,100208.03
2022-08-14T14:45:15.533Z,100216.91
2022-08-14T14:47:22.734Z,100216.03
2022-08-14T14:49:41.531Z,100209.78
2022-08-14T14:51:51.643Z,100207.22
2022-08-14T14:53:54.274Z,100200.94
2022-08-14T14:56:48.257Z,100196.47
2022-08-14T14:58:20.528Z,100205.63
2022-08-14T15:00:22.450Z,100196.38
2022-08-14T15:02:37.281Z,100200.63
2022-08-14T15:04:43.442Z,100201.19
2022-08-14T15:06:47.849Z,100193.56
2022-08-14T15:08:56.705Z,100184.69
2022-08-14T15:11:00.247Z,100191.47
2022-08-14T15:13:04.478Z,100182.47
2022-08-14T15:15:08.565Z,100175.22
2022-08-14T15:17:11.046Z,100180.88
2022-08-14T15:19:12.940Z,100177.59
2022-08-14T15:21:15.396Z,100172.00
2022-08-14T15:23:17.869Z,100176.63
2022-08-14T15:25:24.377Z,100173.19
2022-08-14T15:27:26.901Z,100173.53
2022-08-14T15:29:30.137Z,100175.94
2022-08-14T15:31:37.019Z,100175.38
2022-08-14T15:34:33.775Z,100173.06
2022-08-14T15:36:26.013Z,100176.53
2022-08-14T15:38:34.017Z,100172.94
2022-08-14T15:40:42.715Z,100173.28
2022-08-14T15:42:45.483Z,100172.94
2022-08-14T15:44:57.783Z,100166.50
2022-08-14T15:47:07.067Z,100157.16
2022-08-14T15:49:09.057Z,100158.78
2022-08-14T15:51:11.640Z,100163.41
2022-08-14T15:53:14.690Z,100159.88
2022-08-14T15:55:16.568Z,100167.63
2022-08-14T15:57:20.775Z,100163.97
2022-08-14T15:59:22.471Z,100163.41
2022-08-14T16:01:43.556Z,100171.41
2022-08-14T16:03:49.201Z,100161.28
2022-08-14T16:05:50.979Z,100160.78
2022-08-14T16:07:53.640Z,100159.31
2022-08-14T16:10:25.395Z,100160.81
2022-08-14T16:12:19.199Z,100158.38
2022-08-14T16:14:24.319Z,100152.16
2022-08-14T16:16:49.412Z,100163.22
2022-08-14T16:18:52.395Z,100159.25
2022-08-14T16:20:57.491Z,100154.56
2022-08-14T16:23:00.593Z,100153.22
2022-08-14T16:25:05.288Z,100157.13
2022-08-14T16:27:09.600Z,100157.63
2022-08-14T16:29:22.519Z,100154.00
2022-08-14T16:31:25.266Z,100143.00
2022-08-14T16:33:58.863Z,100160.25
2022-08-14T16:36:01.718Z,100151.63
2022-08-14T16:38:19.343Z,100149.00
2022-08-14T16:40:32.676Z,100149.00
2022-08-14T16:42:39.186Z,100150.44
2022-08-14T16:44:59.301Z,100156.53
2022-08-14T16:47:04.174Z,100153.16
2022-08-14T16:49:12.274Z,100159.66
2022-08-14T16:51:17.792Z,100161.16
2022-08-14T16:53:19.514Z,100159.16
2022-08-14T16:55:30.272Z,100156.50
2022-08-14T16:57:34.180Z,100160.13
2022-08-14T16:59:51.902Z,100146.03
2022-08-14T17:02:01.388Z,100153.94
2022-08-14T17:04:24.407Z,100149.13
2022-08-14T17:06:51.028Z,100153.13
2022-08-14T17:08:52.775Z,100154.63
2022-08-14T17:11:10.247Z,100158.06
2022-08-14T17:13:20.010Z,100158.97
2022-08-14T17:15:22.658Z,100146.16
2022-08-14T17:17:42.735Z,100144.78
2022-08-14T17:19:45.419Z,100150.47
2022-08-14T17:21:57.697Z,100137.88
2022-08-14T17:24:50.986Z,100147.22
2022-08-14T17:26:55.294Z,100142.56
2022-08-14T17:29:08.241Z,100142.88
2022-08-14T17:31:10.005Z,100140.69
2022-08-14T17:33:26.318Z,100139.47
2022-08-14T17:35:57.505Z,100134.94
2022-08-14T17:37:55.976Z,100142.06
2022-08-14T17:40:15.769Z,100132.00
2022-08-14T17:42:32.592Z,100135.75
2022-08-14T17:44:45.616Z,100137.19
2022-08-14T17:47:05.748Z,100135.31
2022-08-14T17:49:16.769Z,100135.38
2022-08-14T17:51:23.629Z,100128.63
2022-08-14T17:53:33.105Z,100133.09
2022-08-14T17:56:01.252Z,100134.94
2022-08-14T17:58:20.507Z,100129.53
2022-08-14T18:00:23.604Z,100134.66
2022-08-14T18:02:31.815Z,100135.28
2022-08-14T18:04:35.538Z,100133.19
2022-08-14T18:06:58.649Z,100136.03
2022-08-14T18:09:04.624Z,100133.81
2022-08-14T18:11:09.084Z,100131.56
2022-08-14T18:13:17.386Z,100134.13
2022-08-14T18:15:19.163Z,100137.66
2022-08-14T18:17:22.992Z,100134.00
2022-08-14T18:19:27.124Z,100132.78
2022-08-14T18:21:41.450Z,100130.22
2022-08-14T18:23:51.768Z,100135.53
2022-08-14T18:25:54.858Z,100127.66
2022-08-14T18:28:45.031Z,100131.50
2022-08-14T18:30:58.864Z,100127.69
2022-08-14T18:33:15.773Z,100131.94
2022-08-14T18:35:45.395Z,100126.44
2022-08-14T18:37:55.731Z,100137.25
2022-08-14T18:40:18.466Z,100127.72
2022-08-14T18:42:23.689Z,100131.09
2022-08-14T18:44:51.186Z,100131.31
2022-08-14T18:47:10.007Z,100129.63
2022-08-14T18:49:17.200Z,100127.16
2022-08-14T18:51:44.946Z,100127.03
2022-08-14T18:53:59.329Z,100126.97
2022-08-14T18:56:09.631Z,100122.91
2022-08-14T18:58:26.552Z,100121.66
2022-08-14T19:00:33.878Z,100117.94
2022-08-14T19:02:42.744Z,100122.41
2022-08-14T19:04:45.182Z,100119.19
2022-08-14T19:06:56.195Z,100120.78
2022-08-14T19:08:58.732Z,100122.59
2022-08-14T19:11:05.215Z,100124.94
2022-08-14T19:13:11.816Z,100124.63
2022-08-14T19:15:25.684Z,100123.53
2022-08-14T19:18:15.029Z,100122.91
2022-08-14T19:20:08.299Z,100123.22
2022-08-14T19:22:22.451Z,100131.94
2022-08-14T19:24:35.644Z,100126.72
2022-08-14T19:26:54.625Z,100123.88
2022-08-14T19:28:58.598Z,100134.50
2022-08-14T19:31:22.709Z,100135.53
2022-08-14T19:33:50.967Z,100138.28
2022-08-14T19:35:55.918Z,100139.13
2022-08-14T19:38:11.264Z,100137.66
2022-08-14T19:40:42.745Z,100141.66
2022-08-14T19:42:47.224Z,100136.38
2022-08-14T19:44:52.222Z,100133.72
2022-08-14T19:47:02.792Z,100138.06
2022-08-14T19:49:08.702Z,100139.97
2022-08-14T19:51:10.854Z,100136.81
2022-08-14T19:53:16.922Z,100136.06
2022-08-14T19:55:20.862Z,100139.63
2022-08-14T19:57:36.666Z,100136.56
2022-08-14T19:59:58.018Z,100139.84
2022-08-14T20:02:00.326Z,100147.81
2022-08-14T20:04:04.276Z,100145.38
2022-08-14T20:06:08.590Z,100148.38
2022-08-14T20:09:05.947Z,100153.91
2022-08-14T20:11:06.962Z,100151.47
2022-08-14T20:13:04.003Z,100155.25
2022-08-14T20:15:15.395Z,100155.25
2022-08-14T20:17:21.789Z,100153.56
2022-08-14T20:19:28.772Z,100151.00
2022-08-14T20:21:34.445Z,100146.78
2022-08-14T20:23:38.207Z,100155.56
2022-08-14T20:25:56.798Z,100149.59
2022-08-14T20:28:29.979Z,100151.84
2022-08-14T20:30:35.943Z,100151.50
2022-08-14T20:32:44.342Z,100147.91
2022-08-14T20:34:51.091Z,100146.53
2022-08-14T20:37:09.576Z,100143.31
2022-08-14T20:39:15.362Z,100151.59
2022-08-14T20:41:20.597Z,100146.19
2022-08-14T20:43:52.710Z,100146.78
2022-08-14T20:45:55.247Z,100149.63
2022-08-14T20:48:17.097Z,100144.63
2022-08-14T20:50:44.928Z,100144.06
2022-08-14T20:52:48.557Z,100144.81
2022-08-14T20:54:51.634Z,100144.16
2022-08-14T20:56:56.018Z,100138.84
2022-08-14T20:58:58.101Z,100137.34
2022-08-14T21:01:04.837Z,100144.53
2022-08-14T21:03:30.069Z,100141.13
2022-08-14T21:05:34.047Z,100141.03
2022-08-14T21:07:38.898Z,100145.31
2022-08-14T21:10:06.396Z,100141.63
2022-08-14T21:12:08.771Z,100138.22
2022-08-14T21:14:30.905Z,100143.63
2022-08-14T21:16:41.659Z,100146.38
2022-08-14T21:19:02.182Z,100136.00
2022-08-14T21:21:09.630Z,100145.69
2022-08-14T21:23:14.463Z,100143.47
2022-08-14T21:25:16.897Z,100139.97
2022-08-14T21:27:23.587Z,100136.56
2022-08-14T21:29:25.809Z,100141.50
2022-08-14T21:31:30.091Z,100140.06
2022-08-14T21:33:35.715Z,100136.03
2022-08-14T21:35:45.809Z,100146.09
2022-08-14T21:37:50.687Z,100162.44
2022-08-14T21:39:58.352Z,100164.31
2022-08-14T21:42:00.912Z,100166.78
2022-08-14T21:44:17.506Z,100173.31
2022-08-14T21:46:22.385Z,100163.75
2022-08-14T21:48:30.011Z,100167.34
2022-08-14T21:50:39.514Z,100158.84
2022-08-14T21:53:00.730Z,100155.06
2022-08-14T21:55:08.720Z,100160.81
2022-08-14T21:57:15.709Z,100156.56
2022-08-14T21:59:29.005Z,100147.22
2022-08-14T22:01:59.512Z,100142.09
2022-08-14T22:03:59.304Z,100149.34
2022-08-14T22:06:04.323Z,100159.19
2022-08-14T22:08:13.877Z,100161.19
2022-08-14T22:10:22.928Z,100156.44
2022-08-14T22:12:45.421Z,100152.06
2022-08-14T22:14:48.356Z,100159.38
2022-08-14T22:17:03.355Z,100159.28
2022-08-14T22:19:15.223Z,100154.84
2022-08-14T22:21:21.580Z,100150.03
2022-08-14T22:23:25.832Z,100156.22
2022-08-14T22:25:34.137Z,100155.16
2022-08-14T22:27:56.061Z,100160.53
2022-08-14T22:29:58.729Z,100161.28
2022-08-14T22:32:00.825Z,100161.28
2022-08-14T22:34:10.726Z,100157.03
2022-08-14T22:36:42.418Z,100157.13
2022-08-14T22:38:49.720Z,100160.91
2022-08-14T22:41:15.040Z,100157.66
2022-08-14T22:43:15.920Z,100157.09
2022-08-14T22:45:18.195Z,100148.38
2022-08-14T22:47:24.836Z,100156.31
2022-08-14T22:50:30.726Z,100147.34
2022-08-14T22:51:53.725Z,100152.63
2022-08-14T22:53:58.422Z,100155.13
2022-08-14T22:56:00.929Z,100153.91
2022-08-14T22:58:17.444Z,100161.34
2022-08-14T23:00:25.563Z,100152.66
2022-08-14T23:02:32.668Z,100152.38
2022-08-14T23:04:54.510Z,100152.66
2022-08-14T23:07:04.715Z,100153.66
2022-08-14T23:09:34.949Z,100154.59
2022-08-14T23:11:29.965Z,100145.81
2022-08-14T23:13:33.190Z,100145.16
2022-08-14T23:15:37.681Z,100141.41
2022-08-14T23:17:40.708Z,100145.34
2022-08-14T23:19:43.968Z,100138.66
2022-08-14T23:21:48.194Z,100141.66
2022-08-14T23:23:51.460Z,100140.19
2022-08-14T23:26:47.095Z,100133.03
2022-08-14T23:28:34.989Z,100135.09
2022-08-14T23:30:49.115Z,100130.59
2022-08-14T23:32:54.400Z,100131.72
2022-08-14T23:34:56.564Z,100127.25
2022-08-14T23:36:59.641Z,100124.03
2022-08-14T23:39:10.385Z,100128.06
2022-08-14T23:41:22.070Z,100123.03
2022-08-14T23:43:24.794Z,100120.34
2022-08-14T23:45:36.608Z,100121.25
2022-08-14T23:47:51.654Z,100108.88
2022-08-14T23:50:03.697Z,100119.03
2022-08-14T23:52:50.375Z,100111.00
2022-08-14T23:54:49.380Z,100111.16
2022-08-14T23:57:02.759Z,100105.22
2022-08-14T23:59:05.887Z,100112.19
